createdAt,value
2022-12-17T00:00:46.725Z,63.1666
2022-12-17T00:05:48.362Z,63.17497
2022-12-17T00:10:50.181Z,61.87135
2022-12-17T00:15:51.843Z,64.8218
2022-12-17T00:20:53.634Z,66.20796
2022-12-17T00:25:55.363Z,67.92948
2022-12-17T00:30:57.951Z,67.77127
2022-12-17T00:35:59.637Z,69.0927
2022-12-17T00:41:01.325Z,69.46051
2022-12-17T00:46:03.053Z,69.60883
2022-12-17T00:51:04.698Z,69.84256
2022-12-17T00:56:06.323Z,69.53897
2022-12-17T01:01:07.962Z,70.13817
2022-12-17T01:06:09.652Z,68.92633
2022-12-17T01:11:11.642Z,68.24453
2022-12-17T01:16:13.341Z,66.45727
2022-12-17T01:21:15.040Z,65.68809
2022-12-17T01:26:16.663Z,68.42711
2022-12-17T01:31:18.463Z,69.47139
2022-12-17T01:36:20.147Z,67.72637
2022-12-17T01:41:21.970Z,65.98375
2022-12-17T01:46:23.636Z,67.506
2022-12-17T01:51:25.408Z,68.48023
2022-12-17T01:56:27.043Z,69.20452
2022-12-17T02:01:29.015Z,68.89529
2022-12-17T02:06:30.673Z,67.47433
2022-12-17T02:11:32.234Z,70.18358
2022-12-17T02:16:33.946Z,69.55139
2022-12-17T02:21:35.598Z,68.84419
2022-12-17T02:26:37.304Z,69.12955
2022-12-17T02:31:38.952Z,68.73516
2022-12-17T02:36:40.611Z,69.58311
2022-12-17T02:41:42.318Z,70.01951
2022-12-17T02:46:43.896Z,68.62794
2022-12-17T02:51:45.630Z,68.72866
2022-12-17T02:56:47.242Z,69.10594
2022-12-17T03:01:49.090Z,68.90994
2022-12-17T03:06:50.861Z,68.38422
2022-12-17T03:11:52.517Z,69.45194
2022-12-17T03:16:54.217Z,68.45836
2022-12-17T03:21:55.858Z,67.00124
2022-12-17T03:26:57.498Z,68.28556
2022-12-17T03:31:59.148Z,67.22427
2022-12-17T03:37:00.772Z,66.26283
2022-12-17T03:42:02.620Z,69.23175
2022-12-17T03:47:04.270Z,67.70776
2022-12-17T03:52:05.896Z,67.29774
2022-12-17T03:57:10.612Z,68.24402
2022-12-17T04:02:16.558Z,67.44954
2022-12-17T04:07:18.283Z,66.47989
2022-12-17T04:12:19.888Z,67.16633
2022-12-17T04:17:21.542Z,66.62043
2022-12-17T04:22:23.219Z,65.06709
2022-12-17T04:27:24.834Z,66.65736
2022-12-17T04:32:28.240Z,66.71046
2022-12-17T04:37:32.886Z,68.31769
2022-12-17T04:42:34.510Z,68.47066
2022-12-17T04:47:36.118Z,68.74177
2022-12-17T04:52:37.724Z,68.46933
2022-12-17T04:57:39.360Z,67.20032
2022-12-17T05:02:42.788Z,65.69644
2022-12-17T05:07:44.794Z,68.31208
2022-12-17T05:12:46.508Z,69.0228
2022-12-17T05:17:48.151Z,68.32763
2022-12-17T05:22:49.781Z,67.61863
2022-12-17T05:27:51.448Z,66.20382
2022-12-17T05:32:53.119Z,65.99033
2022-12-17T05:37:54.716Z,67.51734
2022-12-17T05:42:56.371Z,64.61335
2022-12-17T05:47:58.065Z,66.20978
2022-12-17T05:52:59.743Z,68.4342
2022-12-17T05:58:01.326Z,68.01609
2022-12-17T06:03:03.098Z,66.90612
2022-12-17T06:08:04.792Z,66.40561
2022-12-17T06:13:06.409Z,67.58908
2022-12-17T06:18:13.601Z,67.51243
2022-12-17T06:23:18.262Z,65.46882
2022-12-17T06:28:19.901Z,67.16152
2022-12-17T06:33:21.556Z,68.36251
2022-12-17T06:38:23.157Z,68.42131
2022-12-17T06:43:24.789Z,67.05718
2022-12-17T06:48:26.460Z,67.46363
2022-12-17T06:53:28.325Z,66.87918
2022-12-17T06:58:29.917Z,66.17686
2022-12-17T07:03:31.585Z,67.30203
2022-12-17T07:08:33.239Z,67.17852
2022-12-17T07:13:35.279Z,66.23317
2022-12-17T07:18:37.204Z,67.06985
2022-12-17T07:23:39.187Z,65.38497
2022-12-17T07:28:40.936Z,65.90075
2022-12-17T07:33:42.686Z,66.21943
2022-12-17T07:38:44.336Z,67.90613
2022-12-17T07:43:51.289Z,69.93241
2022-12-17T07:48:54.850Z,68.27308
2022-12-17T07:53:56.461Z,69.27936
2022-12-17T07:58:58.148Z,69.11809
2022-12-17T08:03:59.777Z,68.90639
2022-12-17T08:09:01.438Z,68.61223
2022-12-17T08:14:03.115Z,69.19284
2022-12-17T08:19:04.796Z,66.6098
2022-12-17T08:24:06.383Z,66.66964
2022-12-17T08:29:08.000Z,66.81859
2022-12-17T08:34:09.647Z,69.40103
2022-12-17T08:39:11.286Z,70.75557
2022-12-17T08:44:12.897Z,71.33056
2022-12-17T08:49:14.586Z,73.1822
2022-12-17T08:54:16.183Z,74.38104
2022-12-17T08:59:17.820Z,74.88566
2022-12-17T09:04:19.414Z,71.78919
2022-12-17T09:09:21.022Z,73.77321
2022-12-17T09:14:22.649Z,74.17641
2022-12-17T09:19:24.337Z,73.91402
2022-12-17T09:24:25.954Z,73.42129
2022-12-17T09:29:27.725Z,70.26431
2022-12-17T09:34:29.333Z,69.22212
2022-12-17T09:39:30.976Z,68.12544
2022-12-17T09:44:32.665Z,69.19532
2022-12-17T09:49:34.306Z,67.40748
2022-12-17T09:54:35.965Z,67.01718
2022-12-17T09:59:37.617Z,67.8438
2022-12-17T10:04:39.216Z,68.49789
2022-12-17T10:09:40.850Z,70.20919
2022-12-17T10:14:42.655Z,73.53298
2022-12-17T10:19:44.255Z,72.12676
2022-12-17T10:24:45.910Z,73.49175
2022-12-17T10:29:48.554Z,72.5179
2022-12-17T10:34:50.493Z,74.20243
2022-12-17T10:39:52.101Z,72.43293
2022-12-17T10:44:53.770Z,73.74683
2022-12-17T10:49:55.291Z,72.28548
2022-12-17T10:54:57.127Z,73.01983
2022-12-17T10:59:58.713Z,73.18922
2022-12-17T11:05:00.324Z,73.60659
2022-12-17T11:10:08.714Z,73.75976
2022-12-17T11:15:11.256Z,74.12314
2022-12-17T11:20:12.894Z,72.82731
2022-12-17T11:25:14.490Z,73.4649
2022-12-17T11:30:16.127Z,72.87611
2022-12-17T11:35:17.792Z,72.66589
2022-12-17T11:40:19.400Z,72.56183
2022-12-17T11:45:21.036Z,73.4295
2022-12-17T11:50:22.674Z,73.98346
2022-12-17T11:55:24.281Z,73.01541
2022-12-17T12:00:25.875Z,74.06971
2022-12-17T12:05:27.505Z,73.88598
2022-12-17T12:10:29.130Z,73.15605
2022-12-17T12:15:30.925Z,72.46412
2022-12-17T12:20:32.546Z,71.78477
2022-12-17T12:25:34.175Z,71.52441
2022-12-17T12:30:35.787Z,70.98945
2022-12-17T12:35:37.382Z,71.67297
2022-12-17T12:40:39.117Z,71.04482
2022-12-17T12:45:40.984Z,71.56924
2022-12-17T12:50:42.665Z,72.42291
2022-12-17T12:55:44.293Z,72.31001
2022-12-17T13:00:46.041Z,72.06525
2022-12-17T13:05:47.742Z,71.45303
2022-12-17T13:10:49.534Z,71.34459
2022-12-17T13:15:51.393Z,70.34312
2022-12-17T13:20:53.059Z,66.50892
2022-12-17T13:25:54.623Z,67.9943
2022-12-17T13:30:56.388Z,68.53211
2022-12-17T13:35:58.013Z,67.58964
2022-12-17T13:40:59.751Z,70.83778
2022-12-17T13:46:01.457Z,69.23298
2022-12-17T13:51:03.166Z,67.06407
2022-12-17T13:56:04.979Z,63.68825
2022-12-17T14:01:06.681Z,62.12134
2022-12-17T14:06:08.389Z,62.72434
2022-12-17T14:11:10.044Z,64.69483
2022-12-17T14:16:11.761Z,63.33922
2022-12-17T14:21:13.450Z,61.80589
2022-12-17T14:26:15.144Z,63.66096
2022-12-17T14:31:26.542Z,62.18666
2022-12-17T14:36:29.197Z,62.32984
2022-12-17T14:41:30.817Z,65.89877
2022-12-17T14:46:32.508Z,70.1095
2022-12-17T14:51:34.104Z,71.53772
2022-12-17T14:56:35.708Z,71.28626
2022-12-17T15:01:37.496Z,68.19333
2022-12-17T15:06:39.193Z,67.65161
2022-12-17T15:11:40.805Z,64.84186
2022-12-17T15:16:42.539Z,63.11575
2022-12-17T15:21:44.150Z,64.72204
2022-12-17T15:26:45.854Z,70.35062
2022-12-17T15:31:47.563Z,70.10976
2022-12-17T15:36:49.389Z,66.20765
2022-12-17T15:41:51.017Z,67.86378
2022-12-17T15:46:52.703Z,64.96812
2022-12-17T15:51:54.342Z,67.34359
2022-12-17T15:56:56.034Z,69.9756
2022-12-17T16:01:57.799Z,67.84583
2022-12-17T16:06:59.587Z,68.92702
2022-12-17T16:12:01.190Z,66.92882
2022-12-17T16:17:02.761Z,66.04663
2022-12-17T16:22:04.362Z,64.46292
2022-12-17T16:27:06.069Z,66.38952
2022-12-17T16:32:07.653Z,65.20568
2022-12-17T16:37:09.283Z,63.06153
2022-12-17T16:42:10.863Z,61.94578
2022-12-17T16:47:12.464Z,62.41276
2022-12-17T16:52:14.099Z,62.56321
2022-12-17T16:57:15.873Z,63.22106
2022-12-17T17:02:17.670Z,63.72192
2022-12-17T17:07:19.408Z,62.80051
2022-12-17T17:12:21.023Z,63.24608
2022-12-17T17:17:55.780Z,64.39583
2022-12-17T17:22:57.874Z,64.95478
2022-12-17T17:27:59.534Z,63.46028
2022-12-17T17:33:01.380Z,61.90496
2022-12-17T17:38:02.976Z,62.75896
2022-12-17T17:43:04.581Z,63.30093
2022-12-17T17:48:06.233Z,63.16275
2022-12-17T17:53:07.873Z,61.77894
2022-12-17T17:58:10.475Z,62.75948
2022-12-17T18:03:12.220Z,62.14898
2022-12-17T18:08:13.897Z,62.27801
2022-12-17T18:13:15.519Z,61.77468
2022-12-17T18:18:17.136Z,60.06874
2022-12-17T18:23:18.980Z,60.07155
2022-12-17T18:28:20.666Z,59.14364
2022-12-17T18:33:22.258Z,58.82028
2022-12-17T18:38:23.849Z,59.89814
2022-12-17T18:43:25.483Z,60.85746
2022-12-17T18:48:27.113Z,61.48311
2022-12-17T18:53:28.779Z,62.14357
2022-12-17T18:58:30.392Z,61.75859
2022-12-17T19:03:32.021Z,64.28655
2022-12-17T19:08:33.768Z,64.92816
2022-12-17T19:13:35.461Z,62.28585
2022-12-17T19:18:37.504Z,63.92058
2022-12-17T19:23:39.334Z,65.51735
2022-12-17T19:28:40.940Z,63.32043
2022-12-17T19:33:42.572Z,63.72932
2022-12-17T19:38:44.243Z,63.13997
2022-12-17T19:43:45.819Z,64.14602
2022-12-17T19:48:48.977Z,65.34454
2022-12-17T19:53:50.895Z,64.53954
2022-12-17T19:58:52.596Z,65.25517
2022-12-17T20:03:54.201Z,64.0726
2022-12-17T20:08:55.865Z,64.11438
2022-12-17T20:13:57.440Z,65.89193
2022-12-17T20:18:59.041Z,62.8618
2022-12-17T20:24:00.815Z,62.76251
2022-12-17T20:29:02.511Z,64.97712
2022-12-17T20:34:09.077Z,63.81644
2022-12-17T20:39:10.763Z,62.86843
2022-12-17T20:44:12.392Z,60.92486
2022-12-17T20:49:14.839Z,61.48334
2022-12-17T20:54:16.531Z,64.40196
2022-12-17T20:59:18.165Z,60.68229
2022-12-17T21:04:19.771Z,64.06664
2022-12-17T21:09:21.385Z,62.11444
2022-12-17T21:14:23.230Z,61.5105
2022-12-17T21:19:24.813Z,64.23711
2022-12-17T21:24:26.539Z,65.84685
2022-12-17T21:29:28.179Z,63.85282
2022-12-17T21:34:29.790Z,62.16873
2022-12-17T21:39:31.462Z,61.98599
2022-12-17T21:44:33.096Z,62.0615
2022-12-17T21:49:34.822Z,62.4916
2022-12-17T21:54:36.859Z,61.29408
2022-12-17T21:59:39.165Z,61.21465
2022-12-17T22:04:40.934Z,61.63493
2022-12-17T22:09:51.252Z,62.83412
2022-12-17T22:15:05.416Z,62.68917
2022-12-17T22:20:07.482Z,60.86326
2022-12-17T22:25:10.737Z,60.79421
2022-12-17T22:30:13.711Z,60.53584
2022-12-17T22:36:43.197Z,58.20456
2022-12-17T22:44:54.534Z,60.75395
2022-12-17T22:49:57.095Z,60.16693
2022-12-17T22:54:59.416Z,62.53815
2022-12-17T23:00:01.273Z,62.36241
2022-12-17T23:05:02.990Z,62.39488
2022-12-17T23:10:04.661Z,61.01879
2022-12-17T23:15:06.534Z,62.45176
2022-12-17T23:20:08.159Z,60.86993
2022-12-17T23:25:10.041Z,63.04909
2022-12-17T23:30:11.683Z,66.18367
2022-12-17T23:35:13.293Z,65.31311
2022-12-17T23:40:14.993Z,64.38258
2022-12-17T23:45:16.627Z,62.85456
2022-12-17T23:50:18.278Z,66.00072
2022-12-17T23:55:19.984Z,64.1923
